Time;durP1;ratioP1;P1;durP2;ratioP2;P2;SDS_P1;SDS_P2;PMS_P1;PMS_P2;Temp;Humidity;BMP_temperature;BMP_pressure;BME280_temperature;BME280_humidity;BME280_pressure;Samples;Min_cycle;Max_cycle;Signal;HPM_P1;HPM_P2
2022/03/17 00:01:23;;;;;;;23.08;12.77;;;;;;;9.91;73.78;101815.66;4983156;28;20030;-65
2022/03/17 00:03:48;;;;;;;22.63;13.75;;;;;;;9.90;74.27;101825.66;4980444;28;20038;-70
2022/03/17 00:06:14;;;;;;;26.73;13.20;;;;;;;9.91;73.89;101834.69;4986817;28;20121;-69
2022/03/17 00:08:40;;;;;;;26.75;13.98;;;;;;;9.92;74.01;101833.72;4990117;28;20454;-65
2022/03/17 00:11:05;;;;;;;25.20;13.52;;;;;;;9.91;74.19;101826.53;4989884;28;20118;-65
2022/03/17 00:13:31;;;;;;;25.67;13.75;;;;;;;9.91;74.15;101823.81;4979934;28;20057;-64
2022/03/17 00:15:56;;;;;;;24.73;13.32;;;;;;;9.93;73.79;101819.16;4989760;28;20088;-67
2022/03/17 00:18:21;;;;;;;24.60;14.25;;;;;;;9.95;73.67;101823.56;4980447;28;20030;-70
2022/03/17 00:20:47;;;;;;;21.77;12.77;;;;;;;9.94;73.85;101827.25;4977909;28;20079;-69
2022/03/17 00:23:12;;;;;;;27.70;14.48;;;;;;;9.95;73.89;101814.53;4984841;28;20473;-63
2022/03/17 00:25:38;;;;;;;24.30;13.98;;;;;;;9.93;74.25;101811.00;4979150;28;20482;-64
2022/03/17 00:28:04;;;;;;;25.63;14.27;;;;;;;9.93;73.43;101817.34;4978790;28;20050;-64
2022/03/17 00:30:29;;;;;;;22.65;13.43;;;;;;;9.91;74.19;101810.22;4989371;28;20049;-69
2022/03/17 00:32:55;;;;;;;23.15;13.55;;;;;;;9.92;74.01;101814.69;4983985;28;20043;-66
2022/03/17 00:35:35;;;;;;;23.55;13.82;;;;;;;9.87;73.94;101817.66;4985773;28;20073;-71
2022/03/17 00:38:02;;;;;;;27.35;14.50;;;;;;;9.83;74.07;101805.19;4988653;28;20050;-65
2022/03/17 00:40:28;;;;;;;22.90;13.10;;;;;;;9.81;74.81;101820.72;4989100;28;20685;-68
2022/03/17 00:42:55;;;;;;;25.95;14.55;;;;;;;9.77;74.53;101815.53;4988354;28;20117;-68
2022/03/17 00:45:22;;;;;;;21.95;12.98;;;;;;;9.72;75.08;101821.19;4989763;28;20037;-65
2022/03/17 00:47:47;;;;;;;27.20;15.52;;;;;;;9.73;75.24;101828.38;4982604;28;20039;-68
2022/03/17 00:50:13;;;;;;;25.45;14.45;;;;;;;9.71;74.74;101824.88;4979760;28;20043;-64
2022/03/17 00:52:38;;;;;;;24.73;14.35;;;;;;;9.68;74.65;101831.34;4988884;28;20402;-69
2022/03/17 00:55:05;;;;;;;24.73;13.82;;;;;;;9.66;75.23;101833.28;4984339;28;20074;-69
2022/03/17 00:57:31;;;;;;;23.13;13.40;;;;;;;9.63;75.45;101841.56;5004642;28;20057;-69
2022/03/17 00:59:56;;;;;;;24.77;14.60;;;;;;;9.59;75.91;101834.53;4988270;28;20065;-65
2022/03/17 01:02:21;;;;;;;26.48;14.60;;;;;;;9.61;75.83;101835.38;5007254;28;20454;-70
2022/03/17 01:04:47;;;;;;;26.27;14.77;;;;;;;9.64;75.86;101818.00;4998988;28;20490;-71
2022/03/17 01:07:13;;;;;;;24.77;14.25;;;;;;;9.63;76.59;101836.16;4978793;28;20038;-71
2022/03/17 01:09:38;;;;;;;25.92;14.23;;;;;;;9.62;75.68;101830.81;4987149;28;20367;-69
2022/03/17 01:12:04;;;;;;;23.73;14.23;;;;;;;9.59;76.28;101837.25;5001328;28;20034;-71
2022/03/17 01:14:29;;;;;;;26.17;14.45;;;;;;;9.63;76.28;101833.44;5001134;28;20057;-66
2022/03/17 01:16:54;;;;;;;24.67;14.63;;;;;;;9.65;76.40;101830.63;5008107;28;20564;-68
2022/03/17 01:19:20;;;;;;;23.63;14.55;;;;;;;9.66;76.69;101837.84;4996390;28;20548;-71
2022/03/17 01:21:47;;;;;;;26.95;14.77;;;;;;;9.66;76.01;101835.13;4991944;28;20069;-67
2022/03/17 01:24:12;;;;;;;30.13;14.43;;;;;;;9.68;76.05;101827.75;4999428;28;20038;-71
2022/03/17 01:26:38;;;;;;;25.42;14.95;;;;;;;9.69;76.37;101824.94;5001190;28;20022;-65
2022/03/17 01:29:03;;;;;;;28.75;16.00;;;;;;;9.68;76.80;101815.03;5004051;28;20073;-63
2022/03/17 01:31:29;;;;;;;28.95;15.98;;;;;;;9.68;76.45;101825.03;5008025;28;20428;-69
2022/03/17 01:33:54;;;;;;;25.25;14.27;;;;;;;9.68;76.29;101828.63;4988553;28;20030;-67
2022/03/17 01:36:20;;;;;;;29.50;14.95;;;;;;;9.68;76.97;101831.34;4989970;28;20036;-69
2022/03/17 01:38:45;;;;;;;29.05;16.40;;;;;;;9.70;77.29;101832.16;5008118;28;20083;-66
2022/03/17 01:41:11;;;;;;;27.42;14.40;;;;;;;9.74;76.79;101826.53;5008245;28;20117;-67
2022/03/17 01:43:36;;;;;;;27.27;14.13;;;;;;;9.78;77.22;101826.28;5001813;28;20042;-71
2022/03/17 01:46:01;;;;;;;25.25;13.90;;;;;;;9.81;76.39;101827.97;5002088;28;20276;-68
2022/03/17 01:48:27;;;;;;;29.02;15.57;;;;;;;9.85;76.44;101826.88;4989120;28;20055;-63
2022/03/17 01:50:53;;;;;;;27.23;14.35;;;;;;;9.85;77.10;101833.19;4990652;28;20018;-71
2022/03/17 01:53:21;;;;;;;26.10;14.27;;;;;;;9.87;77.85;101841.25;5007828;28;20121;-64
2022/03/17 01:55:46;;;;;;;28.02;16.00;;;;;;;9.91;77.43;101831.97;4988427;28;20035;-70
2022/03/17 01:58:12;;;;;;;28.75;14.57;;;;;;;9.91;78.15;101831.97;4978098;28;20170;-71
2022/03/17 02:00:40;;;;;;;26.92;15.00;;;;;;;9.92;78.00;101820.13;4997530;28;20048;-65
2022/03/17 02:03:06;;;;;;;28.75;14.27;;;;;;;9.93;77.69;101821.88;4990076;28;20069;-68
2022/03/17 02:05:32;;;;;;;28.75;15.48;;;;;;;9.93;77.37;101816.44;4976019;28;20114;-65
2022/03/17 02:07:57;;;;;;;25.63;15.20;;;;;;;9.93;78.30;101825.50;5003350;28;20022;-69
2022/03/17 02:10:23;;;;;;;26.33;14.52;;;;;;;9.93;78.04;101819.16;5008202;28;20058;-64
2022/03/17 02:15:33;;;;;;;27.33;14.52;;;;;;;9.93;78.13;101838.19;5006146;28;20042;-64
2022/03/17 02:18:00;;;;;;;28.33;15.63;;;;;;;9.92;78.24;101839.16;5001201;28;20117;-65
2022/03/17 02:20:26;;;;;;;28.52;16.08;;;;;;;9.88;78.57;101843.84;4994778;28;20556;-71
2022/03/17 02:22:53;;;;;;;31.92;15.80;;;;;;;9.90;78.09;101847.41;4998301;28;20038;-69
2022/03/17 02:25:35;;;;;;;26.92;15.13;;;;;;;9.90;78.57;101841.97;5007384;28;20045;-69
2022/03/17 02:28:03;;;;;;;26.67;14.70;;;;;;;9.91;78.52;101838.28;4997878;28;20037;-65
2022/03/17 02:30:31;;;;;;;28.55;15.63;;;;;;;9.91;78.45;101843.72;5010202;28;20089;-69
2022/03/17 02:33:03;;;;;;;30.00;15.23;;;;;;;9.91;78.47;101851.88;5001209;28;20014;-69
2022/03/17 02:35:29;;;;;;;26.20;14.98;;;;;;;9.91;78.78;101851.88;4972264;28;20077;-69
2022/03/17 02:37:55;;;;;;;24.80;14.93;;;;;;;9.89;79.14;101852.94;4996517;28;20108;-69
2022/03/17 02:40:20;;;;;;;32.13;16.67;;;;;;;9.92;79.77;101858.16;5003481;28;20030;-65
2022/03/17 02:42:46;;;;;;;32.38;16.33;;;;;;;9.94;79.71;101857.16;4974220;28;20045;-70
2022/03/17 02:45:12;;;;;;;28.20;15.85;;;;;;;9.96;79.74;101868.81;5004651;28;20453;-65
2022/03/17 02:47:39;;;;;;;34.33;17.08;;;;;;;9.99;79.87;101869.63;5004861;28;20134;-70
2022/03/17 02:50:06;;;;;;;30.63;16.40;;;;;;;10.00;80.12;101872.25;4994121;28;20490;-63
2022/03/17 02:52:31;;;;;;;30.85;16.33;;;;;;;10.01;80.57;101876.72;5010876;28;20045;-65
2022/03/17 02:54:57;;;;;;;29.45;17.00;;;;;;;10.02;80.86;101891.19;5009655;28;20026;-64
2022/03/17 02:57:23;;;;;;;29.80;16.27;;;;;;;10.04;81.23;101889.28;5005655;28;20034;-64
2022/03/17 02:59:48;;;;;;;39.40;17.45;;;;;;;10.05;81.96;101905.50;4998047;28;20411;-65
2022/03/17 03:02:17;;;;;;;40.67;20.42;;;;;;;10.07;83.07;101902.69;4988037;28;20118;-68
2022/03/17 03:04:43;;;;;;;34.80;18.70;;;;;;;10.09;84.34;101908.94;4993032;28;20121;-66
2022/03/17 03:07:08;;;;;;;39.08;19.30;;;;;;;10.10;85.31;101911.56;4993528;28;20117;-69
2022/03/17 03:09:34;;;;;;;33.22;18.40;;;;;;;10.11;85.92;101912.44;4973791;28;20029;-70
2022/03/17 03:12:00;;;;;;;32.45;17.88;;;;;;;10.12;85.89;101925.97;4974816;28;20039;-64
2022/03/17 03:14:26;;;;;;;31.65;17.33;;;;;;;10.12;86.54;101933.25;5001153;28;20394;-66
2022/03/17 03:16:51;;;;;;;25.90;14.38;;;;;;;10.09;86.28;101938.84;5005001;28;20406;-70
2022/03/17 03:19:17;;;;;;;23.65;12.32;;;;;;;10.04;86.56;101949.97;5002850;28;20076;-66
2022/03/17 03:21:43;;;;;;;18.30;11.20;;;;;;;9.97;87.01;101953.94;4996039;28;20037;-65
2022/03/17 03:24:13;;;;;;;12.10;8.25;;;;;;;9.91;86.75;101957.00;5008399;28;20045;-66
2022/03/17 03:26:42;;;;;;;11.77;8.48;;;;;;;9.85;86.89;101968.19;4982410;28;20509;-71
2022/03/17 03:29:21;;;;;;;14.75;8.52;;;;;;;9.81;86.95;101974.75;4992403;28;20087;-71
2022/03/17 03:31:46;;;;;;;11.80;7.68;;;;;;;9.74;86.85;101978.72;5010504;28;20113;-70
2022/03/17 03:34:12;;;;;;;14.00;8.85;;;;;;;9.72;87.59;101984.25;4998903;28;20112;-70
2022/03/17 03:39:21;;;;;;;13.02;8.52;;;;;;;9.64;88.04;101995.47;5010831;28;20033;-71
2022/03/17 03:41:46;;;;;;;14.35;8.20;;;;;;;9.62;87.68;102000.13;5005388;28;20448;-70
2022/03/17 03:44:15;;;;;;;11.48;8.25;;;;;;;9.59;87.73;102011.13;4970436;28;20113;-70
2022/03/17 03:46:41;;;;;;;14.00;8.93;;;;;;;9.55;87.95;102022.22;5000021;28;20375;-68
2022/03/17 03:49:07;;;;;;;15.80;9.85;;;;;;;9.48;87.41;102024.38;4993838;28;20038;-71
2022/03/17 03:51:32;;;;;;;19.50;12.10;;;;;;;9.39;86.31;102043.84;5004602;28;20572;-70
2022/03/17 03:54:17;;;;;;;21.88;13.30;;;;;;;9.24;86.48;102041.88;5009592;28;20042;-65
2022/03/17 03:56:47;;;;;;;23.05;14.50;;;;;;;9.18;86.31;102062.03;4977074;28;20062;-70
2022/03/17 03:59:20;;;;;;;26.52;16.10;;;;;;;9.06;86.13;102063.50;4991929;28;20027;-65
2022/03/17 04:01:47;;;;;;;28.23;15.88;;;;;;;8.95;86.70;102063.09;5009825;28;20038;-65
2022/03/17 04:04:18;;;;;;;27.98;15.70;;;;;;;8.87;86.43;102074.31;4980770;28;20030;-69
2022/03/17 04:07:04;;;;;;;27.33;16.08;;;;;;;8.83;86.02;102085.38;4991246;28;20030;-64
2022/03/17 04:09:35;;;;;;;28.48;15.20;;;;;;;8.76;87.26;102090.19;5009055;28;20049;-65
2022/03/17 04:12:03;;;;;;;23.13;14.52;;;;;;;8.72;86.91;102103.97;4998161;28;20062;-70
2022/03/17 04:14:30;;;;;;;29.88;14.80;;;;;;;8.66;87.15;102111.41;4985646;28;20054;-70
2022/03/17 04:16:56;;;;;;;26.48;14.13;;;;;;;8.62;87.89;102109.78;5009621;28;20096;-70
2022/03/17 04:19:21;;;;;;;28.38;14.30;;;;;;;8.60;87.46;102121.66;4997773;28;20541;-65
2022/03/17 04:21:48;;;;;;;29.60;14.43;;;;;;;8.58;88.04;102135.31;4984103;28;20085;-69
2022/03/17 04:24:13;;;;;;;25.73;14.55;;;;;;;8.57;87.58;102138.06;4975615;28;20074;-69
2022/03/17 04:26:39;;;;;;;21.15;12.82;;;;;;;8.55;87.29;102150.84;5002734;28;20049;-65
2022/03/17 04:29:06;;;;;;;28.02;13.98;;;;;;;8.51;87.96;102150.06;4989028;28;20069;-65
2022/03/17 04:31:33;;;;;;;23.00;12.55;;;;;;;8.48;88.01;102157.44;5009144;28;20389;-64
2022/03/17 04:33:58;;;;;;;23.25;13.10;;;;;;;8.40;87.61;102164.09;4998508;28;20371;-66
2022/03/17 04:36:23;;;;;;;23.70;12.60;;;;;;;8.41;87.37;102179.41;4989729;28;20105;-69
2022/03/17 04:38:49;;;;;;;27.80;14.10;;;;;;;8.36;87.49;102183.25;4992148;28;20588;-70
2022/03/17 04:41:17;;;;;;;23.88;13.40;;;;;;;8.28;87.54;102199.81;4995361;28;20524;-65
2022/03/17 04:43:42;;;;;;;25.20;11.80;;;;;;;8.22;87.74;102200.06;4982081;28;20120;-69
2022/03/17 04:46:08;;;;;;;21.23;11.15;;;;;;;8.18;86.95;102209.28;5009023;28;20048;-65
2022/03/17 04:48:33;;;;;;;25.85;12.35;;;;;;;8.14;86.44;102208.50;4988866;28;20088;-69
2022/03/17 04:50:59;;;;;;;26.55;13.07;;;;;;;8.10;86.66;102211.41;4969721;28;20035;-66
2022/03/17 04:53:27;;;;;;;26.73;13.07;;;;;;;8.08;86.45;102221.44;4975044;28;20085;-65
2022/03/17 04:56:14;;;;;;;29.48;13.90;;;;;;;8.04;86.35;102228.81;5008675;28;20041;-71
2022/03/17 04:58:41;;;;;;;26.85;14.63;;;;;;;7.99;85.88;102238.94;4993096;28;20038;-70
2022/03/17 05:01:08;;;;;;;26.27;13.27;;;;;;;7.97;85.69;102251.66;5001778;28;20478;-65
2022/03/17 05:03:34;;;;;;;29.05;14.15;;;;;;;7.95;85.62;102258.97;4968157;28;20049;-64
2022/03/17 05:06:00;;;;;;;22.73;11.52;;;;;;;7.91;85.06;102263.63;4981557;28;20027;-69
2022/03/17 05:08:25;;;;;;;19.85;10.52;;;;;;;7.90;85.23;102274.53;5008481;28;20053;-69
2022/03/17 05:10:54;;;;;;;22.27;9.75;;;;;;;7.86;84.93;102281.00;4984115;28;20101;-68
2022/03/17 05:13:22;;;;;;;17.75;8.07;;;;;;;7.83;84.26;102297.34;4982358;28;20054;-71
2022/03/17 05:15:48;;;;;;;16.80;6.22;;;;;;;7.77;83.82;102295.78;5008214;28;20128;-66
2022/03/17 05:18:14;;;;;;;21.73;7.22;;;;;;;7.71;84.16;102309.56;5003699;28;20034;-70
2022/03/17 05:20:40;;;;;;;13.82;6.38;;;;;;;7.67;83.49;102321.44;4994187;28;20037;-65
2022/03/17 05:23:12;;;;;;;12.95;6.30;;;;;;;7.64;82.90;102324.25;4986244;28;20061;-69
2022/03/17 05:25:42;;;;;;;10.98;4.57;;;;;;;7.60;82.89;102337.03;4997651;28;20042;-69
2022/03/17 05:28:08;;;;;;;13.73;5.00;;;;;;;7.54;82.54;102334.53;4987277;28;20049;-71
2022/03/17 05:30:34;;;;;;;14.52;4.75;;;;;;;7.55;82.33;102336.28;4990678;28;20030;-65
2022/03/17 05:33:00;;;;;;;13.25;4.63;;;;;;;7.54;82.38;102347.19;4998397;28;20039;-66
2022/03/17 05:35:26;;;;;;;6.03;3.60;;;;;;;7.53;81.46;102353.56;4995622;28;20044;-64
2022/03/17 05:37:53;;;;;;;13.73;4.25;;;;;;;7.50;81.70;102357.25;4992818;28;20038;-64
2022/03/17 05:40:19;;;;;;;12.20;4.15;;;;;;;7.48;82.35;102358.25;5007711;28;20033;-70
2022/03/17 05:42:48;;;;;;;12.93;4.55;;;;;;;7.46;82.13;102376.34;4983813;28;20043;-65
2022/03/17 05:45:15;;;;;;;9.07;4.53;;;;;;;7.46;81.71;102377.28;5001919;28;20160;-70
2022/03/17 05:47:49;;;;;;;12.15;4.32;;;;;;;7.44;81.63;102378.25;5004815;28;20089;-66
2022/03/17 05:50:16;;;;;;;11.02;3.72;;;;;;;7.43;81.89;102393.63;4991773;28;20129;-70
2022/03/17 05:52:43;;;;;;;8.90;3.78;;;;;;;7.44;81.72;102402.63;4972623;28;20093;-65
2022/03/17 05:55:10;;;;;;;7.22;3.42;;;;;;;7.44;81.05;102410.75;4981574;28;20038;-65
2022/03/17 05:57:37;;;;;;;7.97;4.00;;;;;;;7.42;81.04;102408.09;4996242;28;20039;-69
2022/03/17 06:00:05;;;;;;;12.10;4.28;;;;;;;7.40;81.74;102416.25;4992376;28;20440;-66
2022/03/17 06:02:32;;;;;;;9.18;2.95;;;;;;;7.40;80.70;102418.97;4996845;28;20041;-68
2022/03/17 06:04:58;;;;;;;10.32;3.22;;;;;;;7.36;80.66;102421.81;4978360;28;20029;-70
2022/03/17 06:07:23;;;;;;;9.77;3.55;;;;;;;7.34;80.56;102435.41;4994614;28;20099;-69
2022/03/17 06:09:48;;;;;;;6.53;3.22;;;;;;;7.30;81.09;102441.88;5000562;28;20072;-64
2022/03/17 06:12:15;;;;;;;8.95;3.20;;;;;;;7.28;80.73;102449.16;4979574;28;20045;-65
2022/03/17 06:14:41;;;;;;;6.30;2.72;;;;;;;7.27;80.92;102452.78;5002114;28;20046;-69
2022/03/17 06:17:06;;;;;;;10.63;3.03;;;;;;;7.26;81.17;102455.56;5007568;28;20072;-65
2022/03/17 06:19:32;;;;;;;11.30;3.10;;;;;;;7.25;81.69;102456.50;5000215;28;20041;-70
2022/03/17 06:21:58;;;;;;;12.27;3.30;;;;;;;7.24;81.36;102469.16;4984220;28;20022;-65
2022/03/17 06:24:24;;;;;;;11.80;2.83;;;;;;;7.24;81.12;102482.69;4989293;28;20093;-64
2022/03/17 06:26:50;;;;;;;4.88;2.50;;;;;;;7.25;80.73;102479.03;4974237;28;20042;-68
2022/03/17 06:29:15;;;;;;;7.57;3.17;;;;;;;7.25;81.06;102484.44;4980751;28;20061;-69
2022/03/17 06:31:40;;;;;;;10.35;2.78;;;;;;;7.25;81.86;102487.16;4986979;28;20554;-70
2022/03/17 06:34:06;;;;;;;9.77;4.18;;;;;;;7.24;81.46;102498.94;4974180;28;20037;-64
2022/03/17 06:36:32;;;;;;;10.60;3.10;;;;;;;7.26;81.28;102505.16;4980145;28;20038;-71
2022/03/17 06:38:57;;;;;;;6.75;3.20;;;;;;;7.25;80.82;102508.81;4987349;28;20465;-71
2022/03/17 06:41:23;;;;;;;8.93;2.47;;;;;;;7.28;81.15;102524.97;4979229;28;20486;-70
2022/03/17 06:43:48;;;;;;;7.38;2.15;;;;;;;7.28;79.99;102530.38;4985523;28;20093;-65
2022/03/17 06:46:13;;;;;;;7.25;3.50;;;;;;;7.29;79.89;102537.56;4987547;28;20057;-69
2022/03/17 06:48:39;;;;;;;9.60;2.50;;;;;;;7.29;79.69;102534.84;4986063;28;20034;-71
2022/03/17 06:51:06;;;;;;;11.63;2.83;;;;;;;7.29;79.81;102539.38;4982164;28;20042;-64
2022/03/17 06:53:32;;;;;;;6.97;2.17;;;;;;;7.31;79.60;102542.91;4988290;28;20387;-64
2022/03/17 06:55:57;;;;;;;6.88;2.10;;;;;;;7.31;79.90;102557.34;4986546;28;20084;-69
2022/03/17 06:58:22;;;;;;;5.85;2.67;;;;;;;7.30;79.29;102558.28;4983751;28;20513;-65
2022/03/17 07:00:48;;;;;;;7.15;2.15;;;;;;;7.30;79.20;102565.50;5000482;28;20042;-69
2022/03/17 07:03:13;;;;;;;6.28;2.67;;;;;;;7.33;79.46;102571.72;4999448;28;20042;-69
2022/03/17 07:05:38;;;;;;;7.57;2.08;;;;;;;7.34;79.45;102580.72;4978103;28;20398;-64
2022/03/17 07:08:05;;;;;;;4.72;1.63;;;;;;;7.34;78.91;102580.72;4997252;28;20505;-65
2022/03/17 07:10:30;;;;;;;5.43;1.50;;;;;;;7.32;78.96;102583.50;4970224;28;20027;-70
2022/03/17 07:12:55;;;;;;;6.55;1.98;;;;;;;7.35;78.94;102596.03;4987767;28;20048;-65
2022/03/17 07:15:21;;;;;;;5.22;1.70;;;;;;;7.34;79.53;102591.56;5011051;28;20038;-70
2022/03/17 07:17:46;;;;;;;5.15;1.70;;;;;;;7.31;80.13;102606.06;5006798;28;20470;-70
2022/03/17 07:20:21;;;;;;;9.65;1.60;;;;;;;7.27;79.49;102607.09;5002971;28;20030;-69
2022/03/17 07:22:49;;;;;;;8.25;2.22;;;;;;;7.23;80.04;102615.34;5002900;28;20045;-65
2022/03/17 07:25:17;;;;;;;3.75;1.60;;;;;;;7.18;80.59;102617.31;5010966;28;20142;-69
2022/03/17 07:27:44;;;;;;;7.07;1.80;;;;;;;7.20;81.73;102626.28;4996614;28;20402;-69
2022/03/17 07:30:22;;;;;;;11.90;2.45;;;;;;;7.19;81.74;102629.94;4987737;28;20486;-69
2022/03/17 07:32:49;;;;;;;11.02;1.70;;;;;;;7.20;81.76;102635.28;4985933;28;20038;-65
2022/03/17 07:35:15;;;;;;;7.13;2.30;;;;;;;7.23;82.02;102643.34;4982661;28;20022;-70
2022/03/17 07:37:41;;;;;;;8.75;1.85;;;;;;;7.25;81.43;102644.16;4985353;28;20034;-70
2022/03/17 07:40:07;;;;;;;11.95;1.52;;;;;;;7.24;81.29;102658.63;4985588;28;20046;-70
2022/03/17 07:42:33;;;;;;;9.02;1.60;;;;;;;7.25;81.54;102664.94;4985758;28;20042;-64
2022/03/17 07:45:37;;;;;;;8.65;1.80;;;;;;;7.26;81.58;102664.00;4989495;28;20084;-63
2022/03/17 07:48:37;;;;;;;12.15;4.07;;;;;;;7.30;81.45;102668.38;4988096;28;20057;-65
2022/03/17 07:51:10;;;;;;;8.93;2.10;;;;;;;7.31;80.87;102679.16;4987031;28;20031;-66
2022/03/17 07:53:37;;;;;;;8.98;1.70;;;;;;;7.31;79.99;102672.88;4990123;28;20104;-70
2022/03/17 07:56:03;;;;;;;8.80;1.65;;;;;;;7.33;80.47;102679.13;4990370;28;20026;-63
2022/03/17 07:58:29;;;;;;;8.95;1.60;;;;;;;7.39;80.78;102685.25;4992278;28;20172;-69
2022/03/17 08:00:56;;;;;;;5.85;1.90;;;;;;;7.43;79.49;102688.75;4992853;28;20030;-64
2022/03/17 08:03:22;;;;;;;6.10;1.38;;;;;;;7.48;79.09;102696.75;4987998;28;20084;-66
2022/03/17 08:05:48;;;;;;;9.07;1.25;;;;;;;7.50;79.37;102702.97;4984637;28;20406;-65
2022/03/17 08:08:15;;;;;;;7.53;1.73;;;;;;;7.53;79.40;102705.63;5008443;28;20037;-69
2022/03/17 08:10:41;;;;;;;10.48;1.55;;;;;;;7.53;78.87;102709.22;5002340;28;20076;-65
2022/03/17 08:13:08;;;;;;;7.90;1.45;;;;;;;7.56;78.79;102713.66;4982086;28;20434;-69
2022/03/17 08:15:33;;;;;;;7.45;1.33;;;;;;;7.55;78.05;102717.28;4988451;28;20441;-65
2022/03/17 08:17:59;;;;;;;10.00;1.75;;;;;;;7.55;78.22;102725.41;4985969;28;20475;-64
2022/03/17 08:20:25;;;;;;;5.93;1.65;;;;;;;7.52;77.42;102742.66;4979228;28;20050;-68
2022/03/17 08:22:51;;;;;;;7.57;1.30;;;;;;;7.53;76.71;102739.00;4983997;28;20511;-64
2022/03/17 08:25:17;;;;;;;10.50;1.55;;;;;;;7.52;76.40;102749.88;4987122;28;20045;-69
2022/03/17 08:27:42;;;;;;;8.05;1.10;;;;;;;7.58;77.22;102753.28;4980873;28;20046;-70
2022/03/17 08:30:09;;;;;;;7.10;1.60;;;;;;;7.70;76.99;102753.88;4989356;28;20026;-70
2022/03/17 08:32:34;;;;;;;11.90;1.60;;;;;;;7.81;75.34;102757.16;4986053;28;20043;-68
2022/03/17 08:35:00;;;;;;;6.20;1.33;;;;;;;7.94;76.01;102766.69;4985523;28;20541;-69
2022/03/17 08:37:25;;;;;;;8.95;1.90;;;;;;;8.01;75.53;102768.25;4979532;28;20065;-65
2022/03/17 08:39:50;;;;;;;8.50;1.52;;;;;;;8.08;74.69;102779.81;4989734;28;20045;-65
2022/03/17 08:42:16;;;;;;;13.07;2.42;;;;;;;8.00;71.85;102788.16;4977742;28;20452;-66
2022/03/17 08:44:41;;;;;;;9.80;1.45;;;;;;;7.98;72.54;102787.34;4987081;28;20034;-64
2022/03/17 08:49:53;;;;;;;6.45;1.17;;;;;;;8.04;71.84;102799.81;4987245;28;20470;-68
2022/03/17 08:52:19;;;;;;;7.10;1.45;;;;;;;8.05;71.15;102801.56;4978193;28;20038;-65
2022/03/17 08:54:45;;;;;;;11.30;1.42;;;;;;;8.07;72.27;102799.72;4987974;28;20498;-63
2022/03/17 08:57:12;;;;;;;6.63;1.48;;;;;;;8.06;71.65;102809.66;4996541;28;20069;-70
2022/03/17 08:59:38;;;;;;;6.25;1.30;;;;;;;8.07;72.84;102814.16;4991514;28;20048;-64
2022/03/17 09:02:11;;;;;;;7.25;1.23;;;;;;;8.06;71.49;102815.06;4987530;28;20035;-68
2022/03/17 09:04:37;;;;;;;6.72;2.10;;;;;;;8.06;71.90;102815.06;4975815;28;20045;-71
2022/03/17 09:07:04;;;;;;;13.63;1.52;;;;;;;8.12;72.15;102816.75;4977845;28;20076;-65
2022/03/17 09:09:32;;;;;;;6.82;1.42;;;;;;;8.11;70.26;102817.66;4988546;28;20084;-65
2022/03/17 09:11:58;;;;;;;5.95;1.40;;;;;;;8.07;71.25;102821.41;4975950;28;20935;-68
2022/03/17 09:14:25;;;;;;;6.57;2.28;;;;;;;8.10;70.14;102824.00;4987147;28;20049;-70
2022/03/17 09:16:51;;;;;;;8.30;1.63;;;;;;;8.14;71.49;102836.53;4980430;28;20121;-65
2022/03/17 09:19:19;;;;;;;6.07;1.00;;;;;;;8.16;68.80;102837.41;4985263;28;20447;-68
2022/03/17 09:21:45;;;;;;;7.30;1.80;;;;;;;8.13;68.78;102841.06;4986243;28;20121;-70
2022/03/17 09:24:11;;;;;;;7.65;1.48;;;;;;;8.18;70.89;102849.97;4988489;28;20125;-63
2022/03/17 09:26:36;;;;;;;7.22;1.52;;;;;;;8.27;70.60;102851.50;4988747;28;20379;-64
2022/03/17 09:29:02;;;;;;;4.88;1.23;;;;;;;8.30;70.60;102854.13;4981954;28;20038;-64
2022/03/17 09:31:27;;;;;;;5.90;1.70;;;;;;;8.38;69.59;102856.63;4988638;28;20072;-65
2022/03/17 09:33:53;;;;;;;11.52;1.65;;;;;;;8.38;68.44;102856.63;4977566;28;20039;-69
2022/03/17 09:36:19;;;;;;;10.98;1.58;;;;;;;8.40;67.85;102863.78;4974944;28;20129;-65
2022/03/17 09:39:39;;;;;;;8.68;1.92;;;;;;;8.34;66.54;102863.91;4988593;28;20076;-65
2022/03/17 09:41:33;;;;;;;11.38;1.80;;;;;;;8.39;69.23;102874.66;4985568;28;20097;-70
2022/03/17 09:43:59;;;;;;;11.38;2.13;;;;;;;8.43;68.85;102870.94;4978672;28;20038;-65
2022/03/17 09:46:27;;;;;;;8.18;1.45;;;;;;;8.58;69.41;102878.63;4984004;28;20109;-66
2022/03/17 09:48:53;;;;;;;10.82;1.88;;;;;;;8.71;68.08;102889.06;4987355;28;20042;-71
2022/03/17 09:51:22;;;;;;;12.77;3.17;;;;;;;8.75;68.67;102885.31;4976159;28;20026;-70
2022/03/17 09:53:47;;;;;;;11.38;2.47;;;;;;;8.81;68.55;102887.81;4974722;28;20065;-68
2022/03/17 09:56:13;;;;;;;9.45;1.75;;;;;;;8.88;69.62;102884.88;4988211;28;20069;-70
2022/03/17 09:58:38;;;;;;;10.77;1.77;;;;;;;8.93;66.40;102898.28;4986149;28;20026;-64
2022/03/17 10:01:06;;;;;;;7.32;1.63;;;;;;;8.85;66.29;102903.06;4988069;28;20027;-64
2022/03/17 10:03:34;;;;;;;6.95;1.45;;;;;;;8.86;68.14;102907.56;4981402;28;20180;-65
2022/03/17 10:06:02;;;;;;;4.68;1.17;;;;;;;8.93;67.12;102914.56;4978512;28;20031;-70
2022/03/17 10:08:27;;;;;;;8.88;1.30;;;;;;;8.98;66.49;102918.03;4983204;28;20046;-64
2022/03/17 10:10:53;;;;;;;11.27;1.90;;;;;;;8.99;65.48;102924.34;4978751;28;20026;-70
2022/03/17 10:13:21;;;;;;;6.05;2.00;;;;;;;9.01;66.13;102938.78;4986175;28;20576;-65
2022/03/17 10:16:05;;;;;;;8.57;1.27;;;;;;;9.04;66.66;102936.81;4986959;28;20486;-65
2022/03/17 10:18:33;;;;;;;3.25;1.17;;;;;;;9.07;64.04;102938.56;4973472;28;20030;-65
2022/03/17 10:21:24;;;;;;;7.32;2.42;;;;;;;9.15;66.61;102940.09;4982469;28;20487;-70
2022/03/17 10:23:54;;;;;;;10.35;1.77;;;;;;;9.20;65.03;102954.41;4988355;28;20039;-64
2022/03/17 10:26:39;;;;;;;8.50;1.90;;;;;;;9.27;65.71;102951.47;4988722;28;20027;-70
2022/03/17 10:29:22;;;;;;;6.13;1.30;;;;;;;9.35;66.23;102960.28;4984012;28;20112;-63
2022/03/17 10:31:59;;;;;;;8.05;2.40;;;;;;;9.32;64.79;102963.06;4987928;28;20046;-66
2022/03/17 10:34:28;;;;;;;4.70;1.27;;;;;;;9.30;65.53;102971.28;4975878;28;20089;-68
2022/03/17 10:37:13;;;;;;;7.82;1.73;;;;;;;9.34;66.57;102977.50;4982144;28;20405;-70
2022/03/17 10:39:53;;;;;;;4.78;1.30;;;;;;;9.25;65.06;102981.41;4980656;28;20375;-65
2022/03/17 10:42:26;;;;;;;5.30;1.00;;;;;;;9.27;65.67;102982.25;4982945;28;20038;-69
2022/03/17 10:44:53;;;;;;;5.43;1.40;;;;;;;9.39;66.62;102984.56;4988429;28;20033;-70
2022/03/17 10:47:26;;;;;;;5.20;1.83;;;;;;;9.45;66.24;102988.91;4990466;28;20613;-67
2022/03/17 10:50:22;;;;;;;4.68;1.70;;;;;;;9.62;66.04;102996.50;4977575;28;20436;-65
2022/03/17 10:53:00;;;;;;;8.93;1.42;;;;;;;9.57;63.69;103001.19;4977936;28;20104;-70
2022/03/17 10:55:31;;;;;;;6.93;1.45;;;;;;;9.42;62.76;103002.59;4991571;28;20100;-69
2022/03/17 10:58:19;;;;;;;4.75;1.60;;;;;;;9.44;64.77;103001.59;4982697;28;20034;-64
2022/03/17 11:00:45;;;;;;;6.10;1.20;;;;;;;9.38;63.86;103009.97;4991418;28;20053;-66
2022/03/17 11:03:10;;;;;;;3.88;1.30;;;;;;;9.44;63.38;103017.91;4988963;28;20026;-68
2022/03/17 11:05:36;;;;;;;5.35;1.50;;;;;;;9.51;63.88;103024.00;4985142;28;20504;-63
2022/03/17 11:08:02;;;;;;;5.30;1.80;;;;;;;9.65;63.06;103034.41;4984285;28;20092;-65
2022/03/17 11:10:28;;;;;;;2.55;0.95;;;;;;;9.75;61.81;103027.75;4984486;28;20038;-68
2022/03/17 11:12:53;;;;;;;6.82;1.55;;;;;;;9.87;62.78;103038.19;4991004;28;20393;-71
2022/03/17 11:15:27;;;;;;;4.38;1.48;;;;;;;10.03;63.43;103033.13;4991028;28;20058;-65
2022/03/17 11:17:58;;;;;;;6.03;1.33;;;;;;;10.17;61.08;103043.53;4987881;28;20042;-65
2022/03/17 11:20:23;;;;;;;4.50;1.38;;;;;;;10.27;61.20;103036.84;4981310;28;20460;-65
2022/03/17 11:23:15;;;;;;;7.65;1.30;;;;;;;10.45;63.15;103043.44;4990352;28;20134;-70
2022/03/17 11:25:52;;;;;;;3.73;1.57;;;;;;;10.68;61.55;103051.66;4990848;28;20042;-65
2022/03/17 11:28:28;;;;;;;7.00;1.70;;;;;;;10.76;61.10;103045.91;4985913;28;20042;-71
2022/03/17 11:30:59;;;;;;;6.35;1.42;;;;;;;10.81;61.46;103048.44;4991257;28;20125;-65
2022/03/17 11:33:27;;;;;;;3.42;1.33;;;;;;;10.91;61.39;103049.88;4984651;28;20050;-66
2022/03/17 11:36:01;;;;;;;5.10;2.30;;;;;;;10.91;61.48;103053.50;4980382;28;20034;-65